Overview Statistics Trail Chart Weather Telemetry Raw packets
 

This is the latest recevied weather packets stored in our database for station/object OM6ACB-6. If no packets are shown the sender has not sent any weather packets the latest 10 day(s).

<< 11 12 13 14 15 16 17 >>
Time Temp. Humidity Pressure Rain* Wind** Luminosity Snow
1788477906 10.56° C 41% 1022 hPa 0 mm - - -
1788477305 10° C 44% 1021.9 hPa 0 mm - - -
1788476705 10° C 41% 1021.9 hPa 0 mm - - -
1788476105 10° C 40% 1021.9 hPa 0 mm - - -
1788475505 10° C 38% 1021.8 hPa 0 mm - - -
1788474904 10° C 35% 1021.8 hPa 0 mm - - -
1788474304 11.11° C 33% 1021.9 hPa 0 mm - - -
1788473704 11.11° C 33% 1021.9 hPa 0 mm - - -
1788473103 10.56° C 37% 1021.9 hPa 0 mm - - -
1788472503 10.56° C 38% 1021.9 hPa 0 mm - - -
1788471903 10.56° C 35% 1021.7 hPa 0 mm - - -
1788471302 10.56° C 33% 1021.7 hPa 0 mm - - -
1788470702 11.67° C 29% 1021.9 hPa 0 mm - - -
1788470102 11.67° C 30% 1021.8 hPa 0 mm - - -
1788469501 11.67° C 27% 1021.8 hPa 0 mm - - -
1788468901 11.67° C 32% 1021.8 hPa 0 mm - - -
1788468301 11.11° C 33% 1021.7 hPa 0 mm - - -
1788467701 11.67° C 31% 1021.8 hPa 0 mm - - -
1788467100 11.67° C 28% 1021.8 hPa 0 mm - - -
1788466500 12.22° C 28% 1021.8 hPa 0 mm - - -
1788465900 12.22° C 27% 1021.7 hPa 0 mm - - -
1788465300 12.22° C 26% 1021.7 hPa 0 mm - - -
1788464699 12.78° C 26% 1021.8 hPa 0 mm - - -
1788464099 12.22° C 26% 1021.8 hPa 0 mm - - -
1788463499 12.78° C 26% 1021.9 hPa 0 mm - - -

* Rain latest hour (hover to see other rain measurements)
** Current wind speed in m/s (hover to see current wind gust speed)